Time;durP1;ratioP1;P1;durP2;ratioP2;P2;SDS_P1;SDS_P2;PMS_P1;PMS_P2;Temp;Humidity;BMP_temperature;BMP_pressure;BME280_temperature;BME280_humidity;BME280_pressure;Samples;Min_cycle;Max_cycle;Signal;HPM_P1;HPM_P2
2022/07/09 00:01:27;;;;;;;12.23;7.23;;;;;;;-146.64;100.00;114928.06;5109933;28;20438;-75
2022/07/09 00:03:54;;;;;;;14.03;5.40;;;;;;;-146.64;100.00;113059.81;5111200;27;20064;-73
2022/07/09 00:06:20;;;;;;;12.98;5.97;;;;;;;-146.64;100.00;113860.38;5129031;28;20019;-73
2022/07/09 00:08:45;;;;;;;11.37;5.83;;;;;;;-146.64;100.00;113860.38;5132888;28;20478;-74
2022/07/09 00:11:10;;;;;;;15.07;6.70;;;;;;;-146.64;100.00;115462.00;5133281;28;20027;-74
2022/07/09 00:13:36;;;;;;;12.47;6.17;;;;;;;-146.64;100.00;115462.00;5083793;28;20073;-74
2022/07/09 00:16:04;;;;;;;16.17;6.00;;;;;;;-146.64;100.00;115996.03;5104692;28;20035;-73
2022/07/09 00:18:29;;;;;;;12.13;5.57;;;;;;;-146.64;100.00;114394.19;5131887;28;20027;-74
2022/07/09 00:20:55;;;;;;;17.00;5.57;;;;;;;-146.64;100.00;114661.13;5131552;28;20034;-74
2022/07/09 00:23:21;;;;;;;12.40;5.90;;;;;;;-146.64;100.00;115729.00;5112447;28;20035;-74
2022/07/09 00:25:46;;;;;;;17.80;6.40;;;;;;;-146.64;100.00;116530.09;5104902;28;20490;-74
2022/07/09 00:28:11;;;;;;;12.67;5.70;;;;;;;-146.64;100.00;116530.09;5132427;28;20037;-74
2022/07/09 00:30:37;;;;;;;17.10;7.20;;;;;;;-146.64;100.00;117331.34;5114081;28;20027;-74
2022/07/09 00:33:02;;;;;;;12.20;7.07;;;;;;;-146.64;100.00;117865.63;5113197;28;20065;-74
2022/07/09 00:35:28;;;;;;;14.80;6.33;;;;;;;-146.64;100.00;118132.78;5114074;28;20587;-74
2022/07/09 00:37:53;;;;;;;9.40;6.27;;;;;;;-146.64;100.00;117865.63;5133887;28;20031;-74
2022/07/09 00:40:19;;;;;;;13.20;7.10;;;;;;;-146.64;100.00;116530.09;5112185;28;20031;-74
2022/07/09 00:42:44;;;;;;;16.67;6.63;;;;;;;-146.64;100.00;116797.16;5112900;28;20030;-74
2022/07/09 00:45:10;;;;;;;11.80;6.67;;;;;;;-146.64;100.00;116797.16;5131178;28;20458;-74
2022/07/09 00:47:36;;;;;;;10.38;6.32;;;;;;;-146.64;100.00;117064.25;5114329;28;20027;-74
2022/07/09 00:50:02;;;;;;;10.57;6.10;;;;;;;-146.64;100.00;117331.34;5112787;28;20035;-73
2022/07/09 00:52:28;;;;;;;17.53;7.43;;;;;;;-146.64;100.00;117064.25;5110816;28;20024;-74
2022/07/09 00:54:54;;;;;;;12.32;6.78;;;;;;;-146.64;100.00;117331.34;5112602;28;20031;-74
2022/07/09 00:57:20;;;;;;;13.30;8.10;;;;;;;-146.64;100.00;118399.94;5095831;28;20020;-74
2022/07/09 00:59:45;;;;;;;12.90;8.13;;;;;;;-146.64;100.00;118132.78;5113088;28;20027;-74
2022/07/09 01:02:12;;;;;;;12.67;8.23;;;;;;;-146.64;100.00;117865.63;5113302;28;20031;-75
2022/07/09 01:04:39;;;;;;;15.57;9.18;;;;;;;-146.64;100.00;118132.78;5099746;28;20142;-76
2022/07/09 01:07:04;;;;;;;14.38;8.75;;;;;;;-146.64;100.00;118132.78;5113686;28;20056;-75
2022/07/09 01:09:30;;;;;;;13.57;8.10;;;;;;;-146.64;100.00;117865.63;5131369;28;20023;-76
2022/07/09 01:11:56;;;;;;;19.73;9.47;;;;;;;-146.64;100.00;118399.94;5097915;28;20027;-76
2022/07/09 01:14:21;;;;;;;20.00;9.40;;;;;;;-146.64;100.00;118399.94;5106496;28;20066;-76
2022/07/09 01:16:46;;;;;;;17.80;9.70;;;;;;;-146.64;100.00;118399.94;5112388;28;20059;-76
2022/07/09 01:19:12;;;;;;;16.67;7.87;;;;;;;-146.64;100.00;118399.94;5095046;28;20043;-76
2022/07/09 01:21:37;;;;;;;17.93;10.63;;;;;;;-146.64;100.00;118402.03;5111337;28;20106;-77
2022/07/09 01:24:03;;;;;;;20.23;10.97;;;;;;;-146.64;100.00;118402.03;5128969;28;20043;-75
2022/07/09 01:26:29;;;;;;;16.07;9.73;;;;;;;-146.64;100.00;118402.03;5114944;28;20440;-77
2022/07/09 01:28:54;;;;;;;16.53;11.03;;;;;;;-146.64;100.00;118402.03;5111385;28;20076;-75
2022/07/09 01:31:19;;;;;;;14.20;10.40;;;;;;;-146.64;100.00;118402.03;5133088;28;20033;-77
2022/07/09 01:33:45;;;;;;;15.87;10.10;;;;;;;-146.64;100.00;118402.03;5113122;28;20027;-76
2022/07/09 01:36:10;;;;;;;16.17;10.03;;;;;;;-146.64;100.00;118402.03;5112973;28;20035;-76
2022/07/09 01:38:36;;;;;;;22.47;10.97;;;;;;;-146.64;100.00;118402.03;5111766;28;20168;-76
2022/07/09 01:41:01;;;;;;;18.37;12.27;;;;;;;-146.64;100.00;118402.03;5130087;28;20493;-76
2022/07/09 01:43:27;;;;;;;17.00;11.30;;;;;;;-146.64;100.00;118402.03;5111041;28;20489;-75
2022/07/09 01:45:52;;;;;;;21.07;10.47;;;;;;;-146.64;100.00;118402.03;5092559;28;20027;-76
2022/07/09 01:48:17;;;;;;;15.50;11.23;;;;;;;-146.64;100.00;118402.03;5125379;28;20031;-76
2022/07/09 01:50:43;;;;;;;15.17;11.03;;;;;;;-146.64;100.00;118402.03;5113070;28;20058;-76
2022/07/09 01:53:09;;;;;;;18.47;11.17;;;;;;;-146.64;100.00;118402.03;5089578;28;20035;-76
2022/07/09 01:55:34;;;;;;;19.00;10.90;;;;;;;-146.64;100.00;118402.03;5113293;28;20466;-77
2022/07/09 01:57:59;;;;;;;21.73;12.50;;;;;;;-146.64;100.00;118402.03;5111266;28;20039;-75
2022/07/09 02:00:27;;;;;;;21.33;12.87;;;;;;;-146.64;100.00;118402.03;5112206;28;20046;-76
2022/07/09 02:02:53;;;;;;;20.98;13.10;;;;;;;-146.64;100.00;118402.03;5111860;28;20107;-76
2022/07/09 02:05:18;;;;;;;24.43;13.63;;;;;;;-146.64;100.00;118402.03;5113537;28;20039;-77
2022/07/09 02:07:44;;;;;;;21.77;15.10;;;;;;;-146.64;100.00;118402.03;5095619;28;20478;-77
2022/07/09 02:10:09;;;;;;;29.07;14.47;;;;;;;-146.64;100.00;118402.03;5129581;28;20159;-76
2022/07/09 02:12:35;;;;;;;24.57;14.27;;;;;;;-146.64;100.00;118402.03;5114103;28;20162;-75
2022/07/09 02:15:00;;;;;;;29.37;17.67;;;;;;;-146.64;100.00;118402.03;5112512;28;20486;-75
2022/07/09 02:17:26;;;;;;;32.93;19.17;;;;;;;-146.64;100.00;118402.03;5111928;28;20343;-76
2022/07/09 02:19:51;;;;;;;33.97;19.93;;;;;;;-146.64;100.00;118402.03;5112753;28;20102;-75
2022/07/09 02:22:16;;;;;;;33.87;20.73;;;;;;;-146.64;100.00;118402.03;5111506;28;20448;-75
2022/07/09 02:24:42;;;;;;;27.97;18.00;;;;;;;-146.64;100.00;118402.03;5130115;28;20035;-75
2022/07/09 02:27:07;;;;;;;26.50;18.63;;;;;;;-146.64;100.00;118402.03;5091421;28;20080;-75
2022/07/09 02:29:33;;;;;;;31.43;18.77;;;;;;;-146.64;100.00;118402.03;5110853;28;20076;-76
2022/07/09 02:31:58;;;;;;;29.67;18.30;;;;;;;-146.64;100.00;118402.03;5092941;28;20027;-75
2022/07/09 02:34:24;;;;;;;29.60;18.33;;;;;;;-146.64;100.00;118402.03;5110088;28;20019;-76
2022/07/09 02:36:50;;;;;;;29.70;18.10;;;;;;;-146.64;100.00;118402.03;5094431;28;20545;-75
2022/07/09 02:39:15;;;;;;;23.60;15.87;;;;;;;-146.64;100.00;118402.03;5108653;28;20626;-75
2022/07/09 02:41:40;;;;;;;26.80;15.37;;;;;;;-146.64;100.00;118402.03;5131982;28;20403;-75
2022/07/09 02:44:06;;;;;;;24.57;16.17;;;;;;;-146.64;100.00;118402.03;5112062;28;20031;-76
2022/07/09 02:46:31;;;;;;;26.43;15.07;;;;;;;-146.64;100.00;118402.03;5113513;28;20164;-76
2022/07/09 02:48:56;;;;;;;28.23;15.70;;;;;;;-146.64;100.00;118402.03;5128612;28;20026;-74
2022/07/09 02:51:22;;;;;;;21.60;14.97;;;;;;;-146.64;100.00;118402.03;5132015;28;20087;-76
2022/07/09 02:53:47;;;;;;;19.03;14.40;;;;;;;-146.64;100.00;118402.03;5128815;28;20031;-77
2022/07/09 02:56:12;;;;;;;25.07;15.53;;;;;;;-146.64;100.00;118402.03;5131606;28;20047;-75
2022/07/09 02:58:38;;;;;;;20.47;14.93;;;;;;;-146.64;100.00;118402.03;5110090;28;20042;-75
2022/07/09 03:01:05;;;;;;;26.40;16.73;;;;;;;-146.64;100.00;118402.03;5095190;28;20034;-75
2022/07/09 03:03:36;;;;;;;27.75;16.63;;;;;;;-146.64;100.00;118402.03;5092213;28;20160;-75
2022/07/09 03:06:08;;;;;;;30.88;17.67;;;;;;;-146.64;100.00;118402.03;5113094;28;20035;-75
2022/07/09 03:08:33;;;;;;;25.23;18.38;;;;;;;-146.64;100.00;118402.03;5110730;28;20517;-76
2022/07/09 03:10:59;;;;;;;32.63;20.00;;;;;;;-146.64;100.00;118402.03;5129571;28;20027;-75
2022/07/09 03:13:24;;;;;;;27.90;19.67;;;;;;;-146.64;100.00;118402.03;5110099;28;20035;-75
2022/07/09 03:15:50;;;;;;;34.13;22.07;;;;;;;-146.64;100.00;118402.03;5110196;28;20023;-75
2022/07/09 03:18:15;;;;;;;27.40;18.83;;;;;;;-146.64;100.00;118402.03;5110583;28;20098;-75
2022/07/09 03:20:41;;;;;;;30.60;21.03;;;;;;;-146.64;100.00;118402.03;5111827;28;20027;-76
2022/07/09 03:23:06;;;;;;;39.83;21.37;;;;;;;-146.64;100.00;118402.03;5110153;28;20038;-76
2022/07/09 03:25:32;;;;;;;34.97;20.93;;;;;;;-146.64;100.00;118402.03;5129275;28;20031;-75
2022/07/09 03:27:57;;;;;;;34.50;22.30;;;;;;;-146.64;100.00;118402.03;5095727;28;20019;-75
2022/07/09 03:30:23;;;;;;;43.37;23.50;;;;;;;-146.64;100.00;118402.03;5129411;28;20533;-76
2022/07/09 03:32:49;;;;;;;37.37;23.60;;;;;;;-146.64;100.00;118402.03;5112105;28;20038;-76
2022/07/09 03:35:14;;;;;;;41.22;21.27;;;;;;;-146.64;100.00;118402.03;5130077;28;20080;-76
2022/07/09 03:37:40;;;;;;;37.83;22.63;;;;;;;-146.64;100.00;118402.03;5111257;28;20031;-75
2022/07/09 03:40:06;;;;;;;34.33;22.47;;;;;;;-146.64;100.00;118402.03;5129791;27;20039;-75
2022/07/09 03:42:31;;;;;;;35.72;22.50;;;;;;;-146.64;100.00;118402.03;5128733;28;20518;-75
2022/07/09 03:44:57;;;;;;;30.90;21.27;;;;;;;-146.64;100.00;118402.03;5094005;28;20029;-74
2022/07/09 03:47:23;;;;;;;37.00;21.90;;;;;;;-146.64;100.00;118402.03;5130145;28;20058;-75
2022/07/09 03:49:48;;;;;;;28.65;21.70;;;;;;;-146.64;100.00;118402.03;5111781;28;20031;-76
2022/07/09 03:52:13;;;;;;;35.00;22.83;;;;;;;-146.64;100.00;118402.03;5095763;28;20036;-76
2022/07/09 03:54:39;;;;;;;37.20;22.27;;;;;;;-146.64;100.00;118402.03;5111374;28;20516;-75
2022/07/09 03:57:04;;;;;;;36.73;22.33;;;;;;;-146.64;100.00;118402.03;5116423;28;20675;-75
2022/07/09 03:59:30;;;;;;;32.27;22.13;;;;;;;-146.64;100.00;118402.03;5090688;28;20482;-75
2022/07/09 04:01:55;;;;;;;32.50;22.37;;;;;;;-146.64;100.00;118402.03;5109794;28;20035;-76
2022/07/09 04:04:20;;;;;;;41.33;22.27;;;;;;;-146.64;100.00;118402.03;5129293;28;20111;-76
2022/07/09 04:06:45;;;;;;;36.00;21.00;;;;;;;-146.64;100.00;118402.03;5109326;28;20478;-75
2022/07/09 04:09:11;;;;;;;35.33;22.13;;;;;;;-146.64;100.00;118402.03;5127122;28;20465;-75
2022/07/09 04:11:36;;;;;;;34.27;21.70;;;;;;;-146.64;100.00;118402.03;5130745;28;20055;-76
2022/07/09 04:14:02;;;;;;;32.70;22.30;;;;;;;-146.64;100.00;118402.03;5107137;28;20054;-75
2022/07/09 04:16:28;;;;;;;29.83;19.60;;;;;;;-146.64;100.00;118402.03;5110270;28;20435;-75
2022/07/09 04:18:53;;;;;;;37.35;21.92;;;;;;;-146.64;100.00;118402.03;5108599;28;20510;-75
2022/07/09 04:21:22;;;;;;;30.83;21.63;;;;;;;-146.64;100.00;118402.03;5129615;28;20042;-75
2022/07/09 04:23:51;;;;;;;32.00;20.95;;;;;;;-146.64;100.00;118402.03;5128737;28;20197;-75
2022/07/09 04:26:18;;;;;;;30.05;20.58;;;;;;;-146.64;100.00;118402.03;5086956;28;20419;-76
2022/07/09 04:28:44;;;;;;;30.85;20.55;;;;;;;-146.64;100.00;118402.03;5126530;28;20034;-75
2022/07/09 04:31:09;;;;;;;32.30;22.13;;;;;;;-146.64;100.00;118402.03;5110822;28;20121;-77
2022/07/09 04:33:35;;;;;;;40.43;21.73;;;;;;;-146.64;100.00;118402.03;5126953;28;20027;-75
2022/07/09 04:36:00;;;;;;;35.23;21.97;;;;;;;-146.64;100.00;118402.03;5127476;28;20019;-75
2022/07/09 04:38:25;;;;;;;33.20;22.53;;;;;;;-146.64;100.00;118402.03;5092812;28;20031;-75
2022/07/09 04:40:51;;;;;;;38.23;23.67;;;;;;;-146.64;100.00;118402.03;5129663;28;20106;-75
2022/07/09 04:43:16;;;;;;;39.97;23.17;;;;;;;-146.64;100.00;118402.03;5093233;28;20031;-75
2022/07/09 04:45:42;;;;;;;38.87;23.63;;;;;;;-146.64;100.00;118402.03;5109499;28;20039;-75
2022/07/09 04:48:07;;;;;;;35.30;23.47;;;;;;;-146.64;100.00;118402.03;5108554;28;20506;-75
2022/07/09 04:50:33;;;;;;;40.80;24.57;;;;;;;-146.64;100.00;118402.03;5129175;27;20031;-75
2022/07/09 04:52:58;;;;;;;35.03;23.27;;;;;;;-146.64;100.00;118402.03;5111463;28;20035;-75
2022/07/09 04:55:23;;;;;;;42.17;23.13;;;;;;;-146.64;100.00;118402.03;5130981;28;20067;-75
2022/07/09 04:57:49;;;;;;;33.37;22.93;;;;;;;-146.64;100.00;118402.03;5114082;28;20054;-75
2022/07/09 05:00:15;;;;;;;38.20;23.20;;;;;;;-146.64;100.00;118402.03;5112290;28;20023;-76
2022/07/09 05:02:41;;;;;;;33.33;21.92;;;;;;;-146.64;100.00;118402.03;5112331;28;20023;-76
2022/07/09 05:05:07;;;;;;;33.97;20.30;;;;;;;-146.64;100.00;118402.03;5130995;28;20511;-75
2022/07/09 05:07:34;;;;;;;34.10;21.47;;;;;;;-146.64;100.00;118402.03;5130647;28;20126;-75
2022/07/09 05:10:01;;;;;;;31.75;20.35;;;;;;;-146.64;100.00;118402.03;5113613;28;20110;-75
2022/07/09 05:12:26;;;;;;;;;;;;;;;-146.64;100.00;118399.94;5114217;28;20048;-75
2022/07/09 05:14:51;;;;;;;35.00;19.33;;;;;;;-146.64;100.00;117331.34;5112455;28;19923;-75
2022/07/09 05:17:17;;;;;;;39.17;20.70;;;;;;;-146.64;100.00;115996.03;5130607;28;20075;-76
2022/07/09 05:19:42;;;;;;;27.37;20.87;;;;;;;-146.64;100.00;114394.19;5096510;28;20035;-76
2022/07/09 05:22:09;;;;;;;32.33;19.80;;;;;;;-146.64;100.00;111992.59;5111666;28;20107;-75
2022/07/09 05:24:34;;;;;;;;;;;;;;;-146.64;100.00;109059.28;5113692;28;20038;-75
2022/07/09 05:27:00;;;;;;;28.40;19.42;;;;;;;-146.64;100.00;106927.25;5131368;28;19911;-75
2022/07/09 05:29:26;;;;;;;30.40;18.43;;;;;;;-146.64;100.00;104530.09;5094893;28;20505;-74
2022/07/09 05:31:52;;;;;;;20.48;15.77;;;;;;;-146.64;100.00;103997.56;5112908;28;20428;-73
2022/07/09 05:34:17;;;;;;;28.77;18.50;;;;;;;-146.64;100.00;100537.94;5096093;28;20088;-75
2022/07/09 05:36:42;;;;;;;26.97;17.13;;;;;;;-146.64;100.00;93627.50;5109622;28;20039;-75
2022/07/09 05:39:08;;;;;;;24.13;16.23;;;;;;;-146.64;100.00;93893.06;5129368;28;20390;-75
2022/07/09 05:41:33;;;;;;;26.20;16.80;;;;;;;-146.64;100.00;92034.47;5113255;28;20087;-75
2022/07/09 05:43:58;;;;;;;26.67;17.00;;;;;;;-146.64;100.00;88850.28;5113097;28;20048;-75
2022/07/09 05:46:25;;;;;;;22.30;16.07;;;;;;;-146.64;100.00;94158.66;5129683;28;20861;-75
2022/07/09 05:48:51;;;;;;;27.23;14.73;;;;;;;-146.64;100.00;97612.84;5129195;28;20033;-74
2022/07/09 05:51:16;;;;;;;23.60;13.87;;;;;;;-146.64;100.00;97081.25;5132531;28;20031;-75
2022/07/09 05:53:42;;;;;;;22.40;14.13;;;;;;;-146.64;100.00;96815.47;5109766;28;20489;-75
2022/07/09 05:56:07;;;;;;;22.50;13.63;;;;;;;-146.64;100.00;97347.03;5112440;28;20055;-75
2022/07/09 05:58:32;;;;;;;18.37;12.47;;;;;;;-146.64;100.00;96283.97;5093018;28;20027;-75
2022/07/09 06:00:58;;;;;;;18.83;12.40;;;;;;;-146.64;100.00;85668.59;5132170;28;20024;-75
2022/07/09 06:03:23;;;;;;;17.77;11.13;;;;;;;-146.64;100.00;75345.50;5129059;27;20286;-75
2022/07/09 06:05:48;;;;;;;21.67;13.00;;;;;;;-146.64;100.00;69533.94;5131425;28;20023;-75
2022/07/09 06:08:14;;;;;;;24.13;11.33;;;;;;;-146.64;100.00;62413.09;5129994;28;20027;-75
2022/07/09 06:10:39;;;;;;;12.83;10.77;;;;;;;-146.64;100.00;65048.97;5100252;28;20076;-75
2022/07/09 06:13:05;;;;;;;22.33;11.70;;;;;;;-146.64;100.00;48964.53;5104222;28;20059;-74
2022/07/09 06:15:30;;;;;;;16.73;10.40;;;;;;;-146.64;100.00;48615.75;5127624;28;20035;-75
2022/07/09 06:17:55;;;;;;;15.30;9.60;;;;;;;-146.64;100.00;49259.97;5101549;28;20080;-75
2022/07/09 06:20:21;;;;;;;15.23;9.90;;;;;;;-146.64;100.00;37234.44;5104860;28;20027;-75
2022/07/09 06:22:47;;;;;;;16.00;10.30;;;;;;;-146.64;100.00;32352.78;5127646;28;20027;-75
2022/07/09 06:25:12;;;;;;;17.70;8.57;;;;;;;-146.64;100.00;32544.81;5096172;28;20040;-74
2022/07/09 06:27:40;;;;;;;17.43;9.77;;;;;;;-146.64;100.00;32479.44;5127679;28;20367;-74
2022/07/09 06:30:05;;;;;;;15.18;8.77;;;;;;;-146.64;100.00;32277.19;5109531;28;20031;-75
2022/07/09 06:32:31;;;;;;;20.80;8.70;;;;;;;-146.64;100.00;33509.28;5111827;28;20060;-75
2022/07/09 06:34:56;;;;;;;13.63;7.97;;;;;;;-146.64;100.00;33879.19;5126243;28;20084;-74
2022/07/09 06:37:22;;;;;;;12.00;7.53;;;;;;;-146.64;100.00;32589.78;5123738;28;20038;-75
2022/07/09 06:39:48;;;;;;;15.80;7.33;;;;;;;-146.64;100.00;32563.22;5102489;28;20057;-74
2022/07/09 06:42:15;;;;;;;14.38;8.80;;;;;;;-146.64;100.00;33227.28;5126641;28;20035;-74
2022/07/09 06:44:40;;;;;;;12.48;7.18;;;;;;;-146.64;100.00;34281.81;5101761;28;20035;-75
2022/07/09 06:47:06;;;;;;;15.82;7.57;;;;;;;-146.64;100.00;34108.09;5109878;28;20031;-76
2022/07/09 06:49:32;;;;;;;8.15;6.38;;;;;;;-146.64;100.00;34784.66;5111714;28;20096;-76
2022/07/09 06:51:57;;;;;;;14.50;6.28;;;;;;;-146.64;100.00;34897.09;5109507;28;20035;-74
2022/07/09 06:54:23;;;;;;;16.52;6.00;;;;;;;-146.64;100.00;34960.47;5129278;28;20625;-75
2022/07/09 06:56:48;;;;;;;11.47;5.47;;;;;;;-146.64;100.00;34825.56;5107798;28;20436;-75
2022/07/09 06:59:14;;;;;;;9.30;5.37;;;;;;;-146.64;100.00;35160.84;5110600;28;20366;-74
2022/07/09 07:01:39;;;;;;;14.20;4.93;;;;;;;-146.64;100.00;35506.34;5111169;28;20023;-75
2022/07/09 07:04:05;;;;;;;32.67;5.90;;;;;;;-146.64;100.00;35741.50;5130198;28;20031;-74
2022/07/09 07:06:30;;;;;;;31.13;6.80;;;;;;;-146.64;100.00;35590.19;5109426;28;20275;-74
2022/07/09 07:08:55;;;;;;;56.23;9.93;;;;;;;-146.64;100.00;35387.78;5092830;28;20505;-74
2022/07/09 07:11:21;;;;;;;15.03;5.73;;;;;;;-146.64;100.00;35244.66;5126448;28;20403;-75
2022/07/09 07:13:46;;;;;;;11.97;5.33;;;;;;;-146.64;100.00;34950.25;5130762;27;20053;-74
2022/07/09 07:16:11;;;;;;;15.90;5.70;;;;;;;-146.64;100.00;34580.25;5100729;28;20023;-74
2022/07/09 07:18:36;;;;;;;14.20;5.90;;;;;;;-146.64;100.00;34302.25;5121034;28;20119;-76
2022/07/09 07:21:02;;;;;;;15.03;6.03;;;;;;;-146.64;100.00;34110.13;5124353;28;20042;-74
2022/07/09 07:23:27;;;;;;;13.37;5.40;;;;;;;-146.64;100.00;33541.97;5103930;28;20146;-75
2022/07/09 07:25:52;;;;;;;12.37;6.13;;;;;;;-146.64;100.00;33035.19;5122524;28;20038;-75
2022/07/09 07:28:18;;;;;;;12.17;5.73;;;;;;;-146.64;100.00;33280.41;5105603;28;20051;-75
2022/07/09 07:30:43;;;;;;;11.77;5.73;;;;;;;-146.64;100.00;32980.03;5122079;28;20110;-75
2022/07/09 07:33:09;;;;;;;10.97;6.10;;;;;;;-146.64;100.00;33652.31;5106831;28;20084;-76
2022/07/09 07:35:34;;;;;;;10.47;5.30;;;;;;;-146.64;100.00;34130.56;5106981;28;20031;-76
2022/07/09 07:38:00;;;;;;;10.73;5.50;;;;;;;-146.64;100.00;34621.13;5096011;28;20034;-76
2022/07/09 07:40:25;;;;;;;8.50;4.80;;;;;;;-146.64;100.00;35021.81;5127923;28;20047;-75
2022/07/09 07:42:50;;;;;;;9.63;5.33;;;;;;;-146.64;100.00;34858.25;5124352;28;20482;-76
2022/07/09 07:45:16;;;;;;;10.23;4.57;;;;;;;-146.64;100.00;34776.50;5102045;28;20088;-77
2022/07/09 07:47:41;;;;;;;6.80;3.73;;;;;;;-146.64;100.00;34608.88;5099475;28;20023;-76
2022/07/09 07:50:07;;;;;;;12.73;3.53;;;;;;;-146.64;100.00;34678.38;5098837;28;20087;-74
2022/07/09 07:52:32;;;;;;;8.15;2.67;;;;;;;-146.64;100.00;34502.56;5103088;28;20191;-76
2022/07/09 07:54:57;;;;;;;7.50;3.00;;;;;;;-146.64;100.00;34619.09;5116238;28;20035;-75
2022/07/09 07:57:23;;;;;;;9.13;2.97;;;;;;;-146.64;100.00;34719.25;5124631;28;20031;-75
2022/07/09 07:59:48;;;;;;;4.50;2.30;;;;;;;-146.64;100.00;34568.00;5090474;28;20038;-76
2022/07/09 08:02:14;;;;;;;7.20;3.07;;;;;;;-146.64;100.00;34737.66;5126293;28;20486;-76
2022/07/09 08:04:40;;;;;;;4.53;2.85;;;;;;;-146.64;100.00;34662.03;5128848;28;20106;-76
2022/07/09 08:07:05;;;;;;;6.60;2.37;;;;;;;-146.64;100.00;34314.53;5092286;28;20607;-76
2022/07/09 08:09:32;;;;;;;5.37;1.90;;;;;;;-146.64;100.00;34500.53;5107925;28;20526;-76
2022/07/09 08:11:57;;;;;;;2.45;1.75;;;;;;;-146.64;100.00;34629.31;5092027;28;20050;-75
2022/07/09 08:14:23;;;;;;;5.27;1.93;;;;;;;-146.64;100.00;34960.47;5124023;28;20035;-76
2022/07/09 08:16:48;;;;;;;4.23;1.47;;;;;;;-146.64;100.00;34516.88;5106741;28;20027;-77
2022/07/09 08:19:15;;;;;;;2.53;1.60;;;;;;;-146.64;100.00;35222.16;5108188;28;20031;-76
2022/07/09 08:21:41;;;;;;;3.67;1.88;;;;;;;-146.64;100.00;35238.53;5127379;28;20122;-77
2022/07/09 08:24:06;;;;;;;3.50;2.30;;;;;;;-146.64;100.00;35516.56;5093423;28;20107;-76
2022/07/09 08:26:31;;;;;;;3.77;1.43;;;;;;;-146.64;100.00;35226.25;5084329;28;20019;-76
2022/07/09 08:28:57;;;;;;;4.80;1.60;;;;;;;-146.64;100.00;35038.16;5110407;28;20508;-74
2022/07/09 08:31:22;;;;;;;1.93;1.30;;;;;;;-146.64;100.00;35234.44;5107955;28;20071;-74
2022/07/09 08:33:48;;;;;;;1.23;0.90;;;;;;;-146.64;100.00;35721.03;5125077;28;20035;-75
2022/07/09 08:36:14;;;;;;;2.07;1.20;;;;;;;-146.64;100.00;35655.63;5102561;28;20042;-75
2022/07/09 08:38:39;;;;;;;1.48;1.02;;;;;;;-146.64;100.00;35692.41;5085033;28;20035;-76
2022/07/09 08:41:05;;;;;;;5.53;1.33;;;;;;;-146.64;100.00;35864.19;5123295;28;20071;-74
2022/07/09 08:43:35;;;;;;;3.20;1.27;;;;;;;-146.64;100.00;35598.38;5105807;28;20019;-75
2022/07/09 08:46:01;;;;;;;1.70;1.10;;;;;;;-146.64;100.00;35500.22;5090678;28;20031;-75
2022/07/09 08:48:26;;;;;;;3.27;1.03;;;;;;;-146.64;100.00;35749.66;5094208;28;20037;-76
2022/07/09 08:50:52;;;;;;;2.87;1.40;;;;;;;-146.64;100.00;35667.88;5108924;28;20545;-75
2022/07/09 08:53:19;;;;;;;3.53;1.37;;;;;;;-146.64;100.00;35696.50;5107561;28;20048;-75
2022/07/09 08:55:47;;;;;;;1.70;1.08;;;;;;;-146.64;100.00;35598.38;5129432;28;20554;-75
2022/07/09 08:58:14;;;;;;;2.15;0.93;;;;;;;-146.64;100.00;35696.50;5091137;28;20050;-75
2022/07/09 09:00:40;;;;;;;1.90;1.35;;;;;;;-146.64;100.00;35962.34;5101554;28;20119;-73
2022/07/09 09:03:05;;;;;;;1.17;0.90;;;;;;;-146.64;100.00;36005.28;5127031;28;20104;-75
2022/07/09 09:05:31;;;;;;;3.70;1.10;;;;;;;-146.64;100.00;35958.25;5111701;28;20783;-75
2022/07/09 09:07:56;;;;;;;3.63;1.33;;;;;;;-146.64;100.00;36158.63;5088982;28;20031;-74
2022/07/09 09:10:26;;;;;;;7.50;1.37;;;;;;;-146.64;100.00;36062.53;5110817;28;20055;-73
2022/07/09 09:12:58;;;;;;;6.22;1.50;;;;;;;-146.64;100.00;36215.91;5078102;28;20060;-74
2022/07/09 09:15:24;;;;;;;2.13;0.93;;;;;;;-146.64;100.00;36236.34;5122606;28;20094;-74
2022/07/09 09:17:49;;;;;;;4.00;1.17;;;;;;;-146.64;100.00;36138.19;5090038;28;20546;-74
2022/07/09 09:20:15;;;;;;;2.83;0.90;;;;;;;-146.64;100.00;36207.72;5126422;28;20023;-74
2022/07/09 09:22:54;;;;;;;2.15;0.95;;;;;;;-146.64;100.00;36338.59;5103779;28;20076;-74
2022/07/09 09:25:20;;;;;;;2.90;1.02;;;;;;;-146.64;100.00;36085.03;5104350;28;20027;-75
2022/07/09 09:27:55;;;;;;;3.13;1.40;;;;;;;-146.64;100.00;36211.81;5100416;28;20028;-74
2022/07/09 09:30:21;;;;;;;4.57;1.15;;;;;;;-146.64;100.00;36207.72;5112777;28;20426;-74
2022/07/09 09:33:03;;;;;;;4.00;0.80;;;;;;;-146.64;98.44;36457.22;5104334;28;20450;-73
2022/07/09 09:35:32;;;;;;;0.75;0.75;;;;;;;-146.64;96.18;36496.06;5105642;28;20501;-74
2022/07/09 09:37:58;;;;;;;2.42;1.20;;;;;;;-146.64;96.77;36395.88;5126674;27;20355;-74
2022/07/09 09:40:23;;;;;;;1.65;0.88;;;;;;;-146.64;91.74;36195.44;5109056;28;20034;-74
2022/07/09 09:42:49;;;;;;;2.80;0.97;;;;;;;-146.64;91.26;36244.53;5107020;28;20034;-74
2022/07/09 09:45:15;;;;;;;2.08;1.00;;;;;;;-146.64;91.43;36234.31;5102554;28;20031;-74
2022/07/09 09:47:47;;;;;;;;;;;;;;;-146.64;91.54;36342.69;5108988;28;20027;-75
2022/07/09 09:50:19;;;;;;;5.00;1.17;;;;;;;-146.64;88.74;36518.56;5110069;28;19925;-76
2022/07/09 09:52:52;;;;;;;2.35;0.98;;;;;;;-146.64;90.03;36543.09;5124483;28;20045;-76
2022/07/09 09:55:19;;;;;;;2.97;1.10;;;;;;;-146.64;91.85;36618.78;5125967;28;20023;-75
2022/07/09 09:57:44;;;;;;;;;;;;;;;-146.64;93.21;36518.56;5100966;28;20133;-75
2022/07/09 10:00:14;;;;;;;6.47;1.92;;;;;;;-146.64;91.03;36481.75;5106270;28;20018;-74
2022/07/09 10:02:43;;;;;;;3.50;0.93;;;;;;;-146.64;90.66;36555.38;5107811;28;20026;-75
2022/07/09 10:05:09;;;;;;;3.25;0.90;;;;;;;-146.64;90.13;36473.56;5086049;28;20042;-75
2022/07/09 10:07:34;;;;;;;2.23;0.90;;;;;;;-146.64;88.45;36199.53;5106802;28;20126;-74
2022/07/09 10:09:59;;;;;;;7.27;1.10;;;;;;;-146.64;89.25;36170.91;5103248;28;20029;-75
2022/07/09 10:12:29;;;;;;;1.80;1.00;;;;;;;-146.64;87.00;36301.78;5117434;28;20036;-74
2022/07/09 10:14:55;;;;;;;1.27;0.82;;;;;;;-146.64;86.95;36330.41;5089651;28;20030;-74
2022/07/09 10:17:21;;;;;;;4.53;1.17;;;;;;;-146.64;87.40;36224.09;5101173;28;20019;-75
2022/07/09 10:19:57;;;;;;;2.63;1.00;;;;;;;-146.64;89.16;36614.69;5104256;28;20475;-74
2022/07/09 10:22:37;;;;;;;4.95;1.02;;;;;;;-146.64;91.63;36712.88;5091619;28;20043;-74
2022/07/09 10:25:05;;;;;;;28.92;2.20;;;;;;;-146.64;91.69;36620.81;5090929;28;20039;-75
2022/07/09 10:27:41;;;;;;;18.30;3.72;;;;;;;-146.64;91.83;36759.91;5125307;28;20038;-75
2022/07/09 10:30:07;;;;;;;5.32;1.23;;;;;;;-146.64;92.53;36768.09;5102430;28;20027;-74
2022/07/09 10:32:33;;;;;;;5.20;1.30;;;;;;;-146.64;91.97;36676.06;5104192;28;20032;-75
2022/07/09 10:35:04;;;;;;;1.23;1.10;;;;;;;-146.64;91.28;36608.56;5105162;28;20039;-75
2022/07/09 10:37:40;;;;;;;1.95;0.90;;;;;;;-146.64;88.95;36725.13;5122012;28;20042;-75
2022/07/09 10:40:17;;;;;;;1.95;0.80;;;;;;;-146.64;89.43;36876.47;5109523;28;20060;-74
2022/07/09 10:42:44;;;;;;;1.63;0.98;;;;;;;-146.64;88.83;36813.09;5086353;28;20028;-74
2022/07/09 10:45:18;;;;;;;2.58;1.13;;;;;;;-146.64;89.81;36825.34;5108303;28;20039;-75
2022/07/09 10:47:46;;;;;;;1.42;0.75;;;;;;;-146.64;89.31;36847.84;5124645;28;20027;-75
2022/07/09 10:50:12;;;;;;;1.55;1.10;;;;;;;-146.64;89.66;37074.88;5099369;28;20490;-74
2022/07/09 10:52:37;;;;;;;1.50;0.90;;;;;;;-146.64;91.19;37175.13;5081166;28;20054;-74
2022/07/09 10:55:03;;;;;;;1.13;0.85;;;;;;;-146.64;90.42;37066.72;5100532;28;20488;-75